sensor_id;sensor_type;location;lat;lon;timestamp;P1;durP1;ratioP1;P2;durP2;ratioP2
76306;SDS011;65117;44.120;3.068;2024-01-27T00:00:06;111.10;;;13.75;;
76306;SDS011;65117;44.120;3.068;2024-01-27T00:02:33;107.30;;;15.57;;
76306;SDS011;65117;44.120;3.068;2024-01-27T00:04:58;136.95;;;19.48;;
76306;SDS011;65117;44.120;3.068;2024-01-27T00:07:24;103.03;;;19.10;;
76306;SDS011;65117;44.120;3.068;2024-01-27T00:09:52;100.85;;;17.67;;
76306;SDS011;65117;44.120;3.068;2024-01-27T00:12:18;86.82;;;16.20;;
76306;SDS011;65117;44.120;3.068;2024-01-27T00:14:43;80.63;;;15.02;;
76306;SDS011;65117;44.120;3.068;2024-01-27T00:17:09;52.95;;;12.65;;
76306;SDS011;65117;44.120;3.068;2024-01-27T00:19:35;58.25;;;13.48;;
76306;SDS011;65117;44.120;3.068;2024-01-27T00:22:01;50.00;;;11.93;;
76306;SDS011;65117;44.120;3.068;2024-01-27T00:24:27;64.75;;;13.18;;
76306;SDS011;65117;44.120;3.068;2024-01-27T00:26:53;60.42;;;13.52;;
76306;SDS011;65117;44.120;3.068;2024-01-27T00:29:19;66.93;;;16.40;;
76306;SDS011;65117;44.120;3.068;2024-01-27T00:31:45;77.80;;;17.63;;
76306;SDS011;65117;44.120;3.068;2024-01-27T00:34:11;75.18;;;15.93;;
76306;SDS011;65117;44.120;3.068;2024-01-27T00:36:36;76.55;;;15.15;;
76306;SDS011;65117;44.120;3.068;2024-01-27T00:39:02;67.25;;;14.35;;
76306;SDS011;65117;44.120;3.068;2024-01-27T00:41:29;66.65;;;14.45;;
76306;SDS011;65117;44.120;3.068;2024-01-27T00:43:55;106.85;;;15.43;;
76306;SDS011;65117;44.120;3.068;2024-01-27T00:46:20;63.33;;;13.18;;
76306;SDS011;65117;44.120;3.068;2024-01-27T00:48:46;96.68;;;17.73;;
76306;SDS011;65117;44.120;3.068;2024-01-27T00:51:12;89.68;;;18.85;;
76306;SDS011;65117;44.120;3.068;2024-01-27T00:53:38;83.05;;;16.92;;
76306;SDS011;65117;44.120;3.068;2024-01-27T00:56:04;79.90;;;14.35;;
76306;SDS011;65117;44.120;3.068;2024-01-27T00:58:30;68.03;;;14.20;;
76306;SDS011;65117;44.120;3.068;2024-01-27T01:00:56;114.78;;;15.63;;
76306;SDS011;65117;44.120;3.068;2024-01-27T01:03:23;148.23;;;16.67;;
76306;SDS011;65117;44.120;3.068;2024-01-27T01:05:49;187.23;;;18.00;;
76306;SDS011;65117;44.120;3.068;2024-01-27T01:08:15;175.50;;;17.48;;
76306;SDS011;65117;44.120;3.068;2024-01-27T01:10:41;184.60;;;19.70;;
76306;SDS011;65117;44.120;3.068;2024-01-27T01:13:07;140.95;;;18.35;;
76306;SDS011;65117;44.120;3.068;2024-01-27T01:15:32;186.20;;;18.15;;
76306;SDS011;65117;44.120;3.068;2024-01-27T01:17:58;144.73;;;21.88;;
76306;SDS011;65117;44.120;3.068;2024-01-27T01:20:24;138.13;;;22.60;;
76306;SDS011;65117;44.120;3.068;2024-01-27T01:22:52;185.40;;;23.17;;
76306;SDS011;65117;44.120;3.068;2024-01-27T01:25:18;167.93;;;20.77;;
76306;SDS011;65117;44.120;3.068;2024-01-27T01:27:44;122.40;;;18.58;;
76306;SDS011;65117;44.120;3.068;2024-01-27T01:30:11;141.57;;;19.83;;
76306;SDS011;65117;44.120;3.068;2024-01-27T01:32:37;165.73;;;19.38;;
76306;SDS011;65117;44.120;3.068;2024-01-27T01:35:03;159.98;;;22.25;;
76306;SDS011;65117;44.120;3.068;2024-01-27T01:37:29;145.07;;;23.38;;
76306;SDS011;65117;44.120;3.068;2024-01-27T01:39:55;136.55;;;22.17;;
76306;SDS011;65117;44.120;3.068;2024-01-27T01:42:20;145.68;;;20.80;;
76306;SDS011;65117;44.120;3.068;2024-01-27T01:44:50;107.60;;;25.42;;
76306;SDS011;65117;44.120;3.068;2024-01-27T01:47:16;99.07;;;17.65;;
76306;SDS011;65117;44.120;3.068;2024-01-27T01:49:42;83.22;;;15.30;;
76306;SDS011;65117;44.120;3.068;2024-01-27T01:52:08;105.10;;;17.98;;
76306;SDS011;65117;44.120;3.068;2024-01-27T01:54:34;98.50;;;23.70;;
76306;SDS011;65117;44.120;3.068;2024-01-27T01:56:59;128.07;;;25.20;;
76306;SDS011;65117;44.120;3.068;2024-01-27T01:59:25;72.10;;;17.05;;
76306;SDS011;65117;44.120;3.068;2024-01-27T02:01:51;81.32;;;16.05;;
76306;SDS011;65117;44.120;3.068;2024-01-27T02:04:17;79.78;;;17.30;;
76306;SDS011;65117;44.120;3.068;2024-01-27T02:06:42;81.57;;;16.70;;
76306;SDS011;65117;44.120;3.068;2024-01-27T02:09:08;75.00;;;15.70;;
76306;SDS011;65117;44.120;3.068;2024-01-27T02:11:35;75.63;;;16.38;;
76306;SDS011;65117;44.120;3.068;2024-01-27T02:14:01;84.47;;;18.88;;
76306;SDS011;65117;44.120;3.068;2024-01-27T02:16:26;84.57;;;20.95;;
76306;SDS011;65117;44.120;3.068;2024-01-27T02:18:52;99.50;;;21.23;;
76306;SDS011;65117;44.120;3.068;2024-01-27T02:21:18;103.95;;;21.63;;
76306;SDS011;65117;44.120;3.068;2024-01-27T02:23:43;141.40;;;25.05;;
76306;SDS011;65117;44.120;3.068;2024-01-27T02:26:09;86.70;;;19.00;;
76306;SDS011;65117;44.120;3.068;2024-01-27T02:28:35;83.07;;;17.75;;
76306;SDS011;65117;44.120;3.068;2024-01-27T02:31:01;95.95;;;17.58;;
76306;SDS011;65117;44.120;3.068;2024-01-27T02:33:27;83.07;;;16.98;;
76306;SDS011;65117;44.120;3.068;2024-01-27T02:35:52;98.72;;;18.27;;
76306;SDS011;65117;44.120;3.068;2024-01-27T02:38:18;91.75;;;17.25;;
76306;SDS011;65117;44.120;3.068;2024-01-27T02:40:44;84.10;;;17.33;;
76306;SDS011;65117;44.120;3.068;2024-01-27T02:43:10;110.15;;;25.17;;
76306;SDS011;65117;44.120;3.068;2024-01-27T02:45:35;83.85;;;23.42;;
76306;SDS011;65117;44.120;3.068;2024-01-27T02:48:01;83.47;;;18.15;;
76306;SDS011;65117;44.120;3.068;2024-01-27T02:50:27;67.03;;;16.48;;
76306;SDS011;65117;44.120;3.068;2024-01-27T02:52:53;79.90;;;19.30;;
76306;SDS011;65117;44.120;3.068;2024-01-27T02:55:19;70.95;;;19.48;;
76306;SDS011;65117;44.120;3.068;2024-01-27T02:57:45;65.32;;;15.82;;
76306;SDS011;65117;44.120;3.068;2024-01-27T03:00:10;68.57;;;15.32;;
76306;SDS011;65117;44.120;3.068;2024-01-27T03:02:36;71.30;;;13.93;;
76306;SDS011;65117;44.120;3.068;2024-01-27T03:05:02;73.20;;;14.68;;
76306;SDS011;65117;44.120;3.068;2024-01-27T03:07:28;46.33;;;12.85;;
76306;SDS011;65117;44.120;3.068;2024-01-27T03:09:53;45.40;;;12.07;;
76306;SDS011;65117;44.120;3.068;2024-01-27T03:12:19;63.42;;;12.82;;
76306;SDS011;65117;44.120;3.068;2024-01-27T03:14:48;57.22;;;12.32;;
76306;SDS011;65117;44.120;3.068;2024-01-27T03:17:15;61.70;;;14.57;;
76306;SDS011;65117;44.120;3.068;2024-01-27T03:19:41;87.30;;;14.25;;
76306;SDS011;65117;44.120;3.068;2024-01-27T03:22:06;73.63;;;12.88;;
76306;SDS011;65117;44.120;3.068;2024-01-27T03:24:32;57.83;;;12.55;;
76306;SDS011;65117;44.120;3.068;2024-01-27T03:26:58;49.70;;;12.38;;
76306;SDS011;65117;44.120;3.068;2024-01-27T03:29:24;93.43;;;13.57;;
76306;SDS011;65117;44.120;3.068;2024-01-27T03:31:50;75.03;;;11.10;;
76306;SDS011;65117;44.120;3.068;2024-01-27T03:34:16;56.35;;;11.77;;
76306;SDS011;65117;44.120;3.068;2024-01-27T03:36:43;78.30;;;12.35;;
76306;SDS011;65117;44.120;3.068;2024-01-27T03:39:10;64.22;;;11.23;;
76306;SDS011;65117;44.120;3.068;2024-01-27T03:41:36;50.45;;;11.07;;
76306;SDS011;65117;44.120;3.068;2024-01-27T03:44:01;59.65;;;13.68;;
76306;SDS011;65117;44.120;3.068;2024-01-27T03:46:27;81.38;;;12.20;;
76306;SDS011;65117;44.120;3.068;2024-01-27T03:48:53;64.90;;;16.55;;
76306;SDS011;65117;44.120;3.068;2024-01-27T03:51:19;98.35;;;20.80;;
76306;SDS011;65117;44.120;3.068;2024-01-27T03:53:44;59.70;;;11.73;;
76306;SDS011;65117;44.120;3.068;2024-01-27T03:56:14;108.70;;;13.25;;
76306;SDS011;65117;44.120;3.068;2024-01-27T03:58:39;71.35;;;12.38;;
76306;SDS011;65117;44.120;3.068;2024-01-27T04:01:05;73.38;;;12.75;;
76306;SDS011;65117;44.120;3.068;2024-01-27T04:03:31;81.57;;;12.40;;
76306;SDS011;65117;44.120;3.068;2024-01-27T04:05:57;70.90;;;11.50;;
76306;SDS011;65117;44.120;3.068;2024-01-27T04:08:23;67.32;;;10.60;;
76306;SDS011;65117;44.120;3.068;2024-01-27T04:10:48;104.45;;;12.65;;
76306;SDS011;65117;44.120;3.068;2024-01-27T04:13:15;86.65;;;12.20;;
76306;SDS011;65117;44.120;3.068;2024-01-27T04:15:40;142.15;;;14.45;;
76306;SDS011;65117;44.120;3.068;2024-01-27T04:18:07;100.63;;;12.00;;
76306;SDS011;65117;44.120;3.068;2024-01-27T04:20:37;144.20;;;14.38;;
76306;SDS011;65117;44.120;3.068;2024-01-27T04:23:03;156.55;;;15.13;;
76306;SDS011;65117;44.120;3.068;2024-01-27T04:25:29;180.00;;;16.05;;
76306;SDS011;65117;44.120;3.068;2024-01-27T04:27:55;191.88;;;16.58;;
76306;SDS011;65117;44.120;3.068;2024-01-27T04:30:20;158.45;;;16.25;;
76306;SDS011;65117;44.120;3.068;2024-01-27T04:32:46;233.27;;;19.63;;
76306;SDS011;65117;44.120;3.068;2024-01-27T04:35:14;198.20;;;17.58;;
76306;SDS011;65117;44.120;3.068;2024-01-27T04:37:40;181.30;;;16.63;;
76306;SDS011;65117;44.120;3.068;2024-01-27T04:40:06;215.88;;;18.65;;
76306;SDS011;65117;44.120;3.068;2024-01-27T04:42:39;261.38;;;21.60;;
76306;SDS011;65117;44.120;3.068;2024-01-27T04:45:05;215.98;;;18.92;;
76306;SDS011;65117;44.120;3.068;2024-01-27T04:47:31;327.85;;;24.17;;
76306;SDS011;65117;44.120;3.068;2024-01-27T04:49:57;176.70;;;16.70;;
76306;SDS011;65117;44.120;3.068;2024-01-27T04:52:23;188.30;;;17.88;;
76306;SDS011;65117;44.120;3.068;2024-01-27T04:54:49;174.57;;;17.77;;
76306;SDS011;65117;44.120;3.068;2024-01-27T04:57:15;296.20;;;24.23;;
76306;SDS011;65117;44.120;3.068;2024-01-27T04:59:41;182.90;;;17.33;;
76306;SDS011;65117;44.120;3.068;2024-01-27T05:02:07;166.93;;;16.23;;
76306;SDS011;65117;44.120;3.068;2024-01-27T05:04:33;208.15;;;18.45;;
76306;SDS011;65117;44.120;3.068;2024-01-27T05:06:58;204.00;;;16.85;;
76306;SDS011;65117;44.120;3.068;2024-01-27T05:09:26;245.23;;;18.52;;
76306;SDS011;65117;44.120;3.068;2024-01-27T05:11:52;116.07;;;12.52;;
76306;SDS011;65117;44.120;3.068;2024-01-27T05:14:18;177.18;;;16.08;;
76306;SDS011;65117;44.120;3.068;2024-01-27T05:16:44;136.05;;;12.68;;
76306;SDS011;65117;44.120;3.068;2024-01-27T05:19:10;160.48;;;15.35;;
76306;SDS011;65117;44.120;3.068;2024-01-27T05:21:37;105.88;;;11.27;;
76306;SDS011;65117;44.120;3.068;2024-01-27T05:24:03;126.68;;;12.43;;
76306;SDS011;65117;44.120;3.068;2024-01-27T05:26:29;206.35;;;16.77;;
76306;SDS011;65117;44.120;3.068;2024-01-27T05:28:55;240.38;;;20.00;;
76306;SDS011;65117;44.120;3.068;2024-01-27T05:31:21;187.35;;;14.98;;
76306;SDS011;65117;44.120;3.068;2024-01-27T05:33:46;175.55;;;14.68;;
76306;SDS011;65117;44.120;3.068;2024-01-27T05:36:12;156.73;;;14.45;;
76306;SDS011;65117;44.120;3.068;2024-01-27T05:38:38;180.60;;;15.13;;
76306;SDS011;65117;44.120;3.068;2024-01-27T05:41:04;233.18;;;17.55;;
76306;SDS011;65117;44.120;3.068;2024-01-27T05:43:30;149.35;;;13.98;;
76306;SDS011;65117;44.120;3.068;2024-01-27T05:45:55;248.68;;;19.52;;
76306;SDS011;65117;44.120;3.068;2024-01-27T05:48:21;165.15;;;13.98;;
76306;SDS011;65117;44.120;3.068;2024-01-27T05:50:57;169.88;;;15.15;;
76306;SDS011;65117;44.120;3.068;2024-01-27T05:53:24;154.13;;;13.43;;
76306;SDS011;65117;44.120;3.068;2024-01-27T05:55:50;159.07;;;13.52;;
76306;SDS011;65117;44.120;3.068;2024-01-27T05:58:17;134.43;;;11.50;;
76306;SDS011;65117;44.120;3.068;2024-01-27T06:00:43;212.25;;;15.48;;
76306;SDS011;65117;44.120;3.068;2024-01-27T06:03:12;93.13;;;9.85;;
76306;SDS011;65117;44.120;3.068;2024-01-27T06:05:38;111.43;;;11.45;;
76306;SDS011;65117;44.120;3.068;2024-01-27T06:08:04;89.72;;;9.02;;
76306;SDS011;65117;44.120;3.068;2024-01-27T06:10:30;120.78;;;9.70;;
76306;SDS011;65117;44.120;3.068;2024-01-27T06:12:57;105.85;;;9.60;;
76306;SDS011;65117;44.120;3.068;2024-01-27T06:15:22;110.90;;;10.63;;
76306;SDS011;65117;44.120;3.068;2024-01-27T06:17:48;132.05;;;12.40;;
76306;SDS011;65117;44.120;3.068;2024-01-27T06:20:14;146.27;;;11.95;;
76306;SDS011;65117;44.120;3.068;2024-01-27T06:22:42;54.60;;;7.85;;
76306;SDS011;65117;44.120;3.068;2024-01-27T06:25:08;69.38;;;8.75;;
76306;SDS011;65117;44.120;3.068;2024-01-27T06:27:34;112.15;;;10.02;;
76306;SDS011;65117;44.120;3.068;2024-01-27T06:30:00;119.10;;;10.73;;
76306;SDS011;65117;44.120;3.068;2024-01-27T06:32:26;103.90;;;9.70;;
76306;SDS011;65117;44.120;3.068;2024-01-27T06:34:52;134.40;;;11.13;;
76306;SDS011;65117;44.120;3.068;2024-01-27T06:37:18;93.45;;;9.10;;
76306;SDS011;65117;44.120;3.068;2024-01-27T06:39:43;159.05;;;11.93;;
76306;SDS011;65117;44.120;3.068;2024-01-27T06:42:09;106.72;;;9.45;;
76306;SDS011;65117;44.120;3.068;2024-01-27T06:44:35;177.85;;;12.98;;
76306;SDS011;65117;44.120;3.068;2024-01-27T06:47:00;205.52;;;14.90;;
76306;SDS011;65117;44.120;3.068;2024-01-27T06:49:26;162.25;;;12.52;;
76306;SDS011;65117;44.120;3.068;2024-01-27T06:51:52;176.00;;;14.13;;
76306;SDS011;65117;44.120;3.068;2024-01-27T06:54:18;175.98;;;13.55;;
76306;SDS011;65117;44.120;3.068;2024-01-27T06:56:43;162.27;;;13.07;;
76306;SDS011;65117;44.120;3.068;2024-01-27T06:59:09;171.00;;;13.80;;
76306;SDS011;65117;44.120;3.068;2024-01-27T07:01:35;233.13;;;15.50;;
76306;SDS011;65117;44.120;3.068;2024-01-27T07:04:01;150.00;;;12.00;;
76306;SDS011;65117;44.120;3.068;2024-01-27T07:06:26;132.02;;;11.25;;
76306;SDS011;65117;44.120;3.068;2024-01-27T07:08:52;186.15;;;13.07;;
76306;SDS011;65117;44.120;3.068;2024-01-27T07:11:18;259.27;;;16.20;;
76306;SDS011;65117;44.120;3.068;2024-01-27T07:13:43;232.68;;;15.70;;
76306;SDS011;65117;44.120;3.068;2024-01-27T07:16:09;224.18;;;14.43;;
76306;SDS011;65117;44.120;3.068;2024-01-27T07:18:35;201.18;;;13.48;;
76306;SDS011;65117;44.120;3.068;2024-01-27T07:21:01;221.43;;;15.48;;
76306;SDS011;65117;44.120;3.068;2024-01-27T07:23:27;202.80;;;14.25;;
76306;SDS011;65117;44.120;3.068;2024-01-27T07:25:53;244.07;;;15.90;;
76306;SDS011;65117;44.120;3.068;2024-01-27T07:28:19;154.63;;;14.60;;
76306;SDS011;65117;44.120;3.068;2024-01-27T07:30:45;126.35;;;13.88;;
76306;SDS011;65117;44.120;3.068;2024-01-27T07:33:11;148.73;;;11.32;;
76306;SDS011;65117;44.120;3.068;2024-01-27T07:35:36;213.40;;;17.30;;
76306;SDS011;65117;44.120;3.068;2024-01-27T07:38:02;164.00;;;14.52;;
76306;SDS011;65117;44.120;3.068;2024-01-27T07:40:28;76.43;;;9.57;;
76306;SDS011;65117;44.120;3.068;2024-01-27T07:42:53;79.85;;;7.93;;
76306;SDS011;65117;44.120;3.068;2024-01-27T07:45:19;74.72;;;8.77;;
76306;SDS011;65117;44.120;3.068;2024-01-27T07:47:45;67.43;;;12.05;;
76306;SDS011;65117;44.120;3.068;2024-01-27T07:50:11;74.57;;;21.48;;
76306;SDS011;65117;44.120;3.068;2024-01-27T07:52:37;79.22;;;13.68;;
76306;SDS011;65117;44.120;3.068;2024-01-27T07:55:02;56.95;;;11.95;;
76306;SDS011;65117;44.120;3.068;2024-01-27T07:57:28;97.03;;;22.25;;
76306;SDS011;65117;44.120;3.068;2024-01-27T07:59:54;89.88;;;16.20;;
76306;SDS011;65117;44.120;3.068;2024-01-27T08:02:20;61.03;;;8.35;;
76306;SDS011;65117;44.120;3.068;2024-01-27T08:04:46;79.63;;;8.80;;
76306;SDS011;65117;44.120;3.068;2024-01-27T08:07:12;43.72;;;7.30;;
76306;SDS011;65117;44.120;3.068;2024-01-27T08:09:40;72.90;;;8.77;;
76306;SDS011;65117;44.120;3.068;2024-01-27T08:12:06;88.35;;;8.90;;
76306;SDS011;65117;44.120;3.068;2024-01-27T08:14:32;77.78;;;7.05;;
76306;SDS011;65117;44.120;3.068;2024-01-27T08:16:59;59.60;;;6.72;;
76306;SDS011;65117;44.120;3.068;2024-01-27T08:19:24;41.03;;;5.65;;
76306;SDS011;65117;44.120;3.068;2024-01-27T08:21:50;77.07;;;7.13;;
76306;SDS011;65117;44.120;3.068;2024-01-27T08:24:16;72.53;;;6.72;;
76306;SDS011;65117;44.120;3.068;2024-01-27T08:26:42;38.65;;;5.43;;
76306;SDS011;65117;44.120;3.068;2024-01-27T08:29:08;38.35;;;5.32;;
76306;SDS011;65117;44.120;3.068;2024-01-27T08:31:34;27.40;;;5.13;;
76306;SDS011;65117;44.120;3.068;2024-01-27T08:34:00;22.95;;;4.65;;
76306;SDS011;65117;44.120;3.068;2024-01-27T08:36:26;11.80;;;4.07;;
76306;SDS011;65117;44.120;3.068;2024-01-27T08:38:51;12.07;;;4.75;;
76306;SDS011;65117;44.120;3.068;2024-01-27T08:41:17;8.35;;;4.05;;
76306;SDS011;65117;44.120;3.068;2024-01-27T08:43:43;6.53;;;3.40;;
76306;SDS011;65117;44.120;3.068;2024-01-27T08:46:09;17.45;;;4.30;;
76306;SDS011;65117;44.120;3.068;2024-01-27T08:48:37;12.10;;;3.90;;
76306;SDS011;65117;44.120;3.068;2024-01-27T08:51:04;9.60;;;4.28;;
76306;SDS011;65117;44.120;3.068;2024-01-27T08:53:29;17.38;;;3.97;;
76306;SDS011;65117;44.120;3.068;2024-01-27T08:55:55;5.75;;;3.47;;
76306;SDS011;65117;44.120;3.068;2024-01-27T08:58:21;5.10;;;3.17;;
76306;SDS011;65117;44.120;3.068;2024-01-27T09:00:46;6.15;;;3.60;;
76306;SDS011;65117;44.120;3.068;2024-01-27T09:03:12;4.28;;;3.20;;
76306;SDS011;65117;44.120;3.068;2024-01-27T09:05:39;4.82;;;3.63;;
76306;SDS011;65117;44.120;3.068;2024-01-27T09:08:07;4.18;;;3.30;;
76306;SDS011;65117;44.120;3.068;2024-01-27T09:10:33;5.95;;;2.97;;
76306;SDS011;65117;44.120;3.068;2024-01-27T09:12:58;4.32;;;2.85;;
76306;SDS011;65117;44.120;3.068;2024-01-27T09:15:24;8.43;;;3.47;;
76306;SDS011;65117;44.120;3.068;2024-01-27T09:17:50;10.27;;;4.75;;
76306;SDS011;65117;44.120;3.068;2024-01-27T09:20:16;7.10;;;4.07;;
76306;SDS011;65117;44.120;3.068;2024-01-27T09:22:42;14.48;;;5.13;;
76306;SDS011;65117;44.120;3.068;2024-01-27T09:25:10;6.75;;;3.55;;
76306;SDS011;65117;44.120;3.068;2024-01-27T09:27:35;6.47;;;3.75;;
76306;SDS011;65117;44.120;3.068;2024-01-27T09:30:02;6.15;;;3.58;;
76306;SDS011;65117;44.120;3.068;2024-01-27T09:32:28;6.72;;;4.45;;
76306;SDS011;65117;44.120;3.068;2024-01-27T09:34:54;6.43;;;4.05;;
76306;SDS011;65117;44.120;3.068;2024-01-27T09:37:19;9.32;;;4.68;;
76306;SDS011;65117;44.120;3.068;2024-01-27T09:39:45;5.25;;;3.72;;
76306;SDS011;65117;44.120;3.068;2024-01-27T09:42:12;5.50;;;3.63;;
76306;SDS011;65117;44.120;3.068;2024-01-27T09:44:42;4.28;;;3.60;;
76306;SDS011;65117;44.120;3.068;2024-01-27T09:47:10;6.32;;;2.72;;
76306;SDS011;65117;44.120;3.068;2024-01-27T09:49:38;10.13;;;3.60;;
76306;SDS011;65117;44.120;3.068;2024-01-27T09:52:05;4.35;;;2.38;;
76306;SDS011;65117;44.120;3.068;2024-01-27T09:54:31;6.95;;;3.05;;
76306;SDS011;65117;44.120;3.068;2024-01-27T09:56:57;3.45;;;2.60;;
76306;SDS011;65117;44.120;3.068;2024-01-27T09:59:23;5.90;;;3.58;;
76306;SDS011;65117;44.120;3.068;2024-01-27T10:01:48;6.25;;;3.22;;
76306;SDS011;65117;44.120;3.068;2024-01-27T10:04:16;6.57;;;3.95;;
76306;SDS011;65117;44.120;3.068;2024-01-27T10:06:44;6.20;;;3.95;;
76306;SDS011;65117;44.120;3.068;2024-01-27T10:09:11;7.93;;;5.63;;
76306;SDS011;65117;44.120;3.068;2024-01-27T10:11:37;9.10;;;5.70;;
76306;SDS011;65117;44.120;3.068;2024-01-27T10:14:06;8.10;;;5.40;;
76306;SDS011;65117;44.120;3.068;2024-01-27T10:16:41;11.13;;;6.60;;
76306;SDS011;65117;44.120;3.068;2024-01-27T10:19:11;12.75;;;6.68;;
76306;SDS011;65117;44.120;3.068;2024-01-27T10:21:40;8.80;;;5.10;;
76306;SDS011;65117;44.120;3.068;2024-01-27T10:24:06;9.13;;;4.88;;
76306;SDS011;65117;44.120;3.068;2024-01-27T10:26:33;7.38;;;4.80;;
76306;SDS011;65117;44.120;3.068;2024-01-27T10:29:00;4.57;;;3.90;;
76306;SDS011;65117;44.120;3.068;2024-01-27T10:31:27;5.63;;;3.40;;
76306;SDS011;65117;44.120;3.068;2024-01-27T10:33:54;8.25;;;4.30;;
76306;SDS011;65117;44.120;3.068;2024-01-27T10:36:21;4.72;;;2.50;;
76306;SDS011;65117;44.120;3.068;2024-01-27T10:38:47;8.15;;;3.67;;
76306;SDS011;65117;44.120;3.068;2024-01-27T10:41:14;6.88;;;3.88;;
76306;SDS011;65117;44.120;3.068;2024-01-27T10:43:52;6.32;;;3.75;;
76306;SDS011;65117;44.120;3.068;2024-01-27T10:46:19;5.32;;;3.33;;
76306;SDS011;65117;44.120;3.068;2024-01-27T10:48:49;7.82;;;3.65;;
76306;SDS011;65117;44.120;3.068;2024-01-27T10:51:16;4.22;;;3.30;;
76306;SDS011;65117;44.120;3.068;2024-01-27T10:53:48;6.03;;;3.72;;
76306;SDS011;65117;44.120;3.068;2024-01-27T10:56:14;4.75;;;3.45;;
76306;SDS011;65117;44.120;3.068;2024-01-27T10:58:40;6.28;;;3.65;;
76306;SDS011;65117;44.120;3.068;2024-01-27T11:01:12;6.60;;;3.20;;
76306;SDS011;65117;44.120;3.068;2024-01-27T11:03:39;6.65;;;3.00;;
76306;SDS011;65117;44.120;3.068;2024-01-27T11:06:05;3.55;;;2.50;;
76306;SDS011;65117;44.120;3.068;2024-01-27T11:08:32;10.88;;;3.70;;
76306;SDS011;65117;44.120;3.068;2024-01-27T11:10:59;3.38;;;2.25;;
76306;SDS011;65117;44.120;3.068;2024-01-27T11:13:25;3.80;;;2.65;;
76306;SDS011;65117;44.120;3.068;2024-01-27T11:15:53;3.35;;;2.58;;
76306;SDS011;65117;44.120;3.068;2024-01-27T11:18:19;3.67;;;2.85;;
76306;SDS011;65117;44.120;3.068;2024-01-27T11:20:45;3.13;;;2.60;;
76306;SDS011;65117;44.120;3.068;2024-01-27T11:23:14;3.10;;;2.50;;
76306;SDS011;65117;44.120;3.068;2024-01-27T11:25:40;5.25;;;2.80;;
76306;SDS011;65117;44.120;3.068;2024-01-27T11:28:13;5.00;;;2.40;;
76306;SDS011;65117;44.120;3.068;2024-01-27T11:30:40;3.97;;;2.58;;
76306;SDS011;65117;44.120;3.068;2024-01-27T11:33:13;3.65;;;2.83;;
76306;SDS011;65117;44.120;3.068;2024-01-27T11:35:39;4.50;;;2.63;;
76306;SDS011;65117;44.120;3.068;2024-01-27T11:38:04;4.07;;;2.80;;
76306;SDS011;65117;44.120;3.068;2024-01-27T11:40:30;3.22;;;2.50;;
76306;SDS011;65117;44.120;3.068;2024-01-27T11:43:00;4.10;;;2.30;;
76306;SDS011;65117;44.120;3.068;2024-01-27T11:45:27;4.28;;;2.15;;
76306;SDS011;65117;44.120;3.068;2024-01-27T11:47:55;2.50;;;1.85;;
76306;SDS011;65117;44.120;3.068;2024-01-27T11:50:21;2.78;;;1.60;;
76306;SDS011;65117;44.120;3.068;2024-01-27T11:52:48;2.42;;;1.40;;
76306;SDS011;65117;44.120;3.068;2024-01-27T11:55:14;1.70;;;1.40;;
76306;SDS011;65117;44.120;3.068;2024-01-27T11:57:44;2.35;;;1.30;;
76306;SDS011;65117;44.120;3.068;2024-01-27T12:00:10;1.40;;;1.30;;
76306;SDS011;65117;44.120;3.068;2024-01-27T12:02:39;3.38;;;1.33;;
76306;SDS011;65117;44.120;3.068;2024-01-27T12:05:06;2.00;;;1.25;;
76306;SDS011;65117;44.120;3.068;2024-01-27T12:07:33;1.67;;;1.20;;
76306;SDS011;65117;44.120;3.068;2024-01-27T12:09:59;1.20;;;1.10;;
76306;SDS011;65117;44.120;3.068;2024-01-27T12:12:24;1.42;;;0.93;;
76306;SDS011;65117;44.120;3.068;2024-01-27T12:14:50;1.25;;;0.90;;
76306;SDS011;65117;44.120;3.068;2024-01-27T12:17:17;1.20;;;0.60;;
76306;SDS011;65117;44.120;3.068;2024-01-27T12:19:47;0.50;;;0.50;;
76306;SDS011;65117;44.120;3.068;2024-01-27T12:22:24;0.50;;;0.40;;
76306;SDS011;65117;44.120;3.068;2024-01-27T12:24:53;1.00;;;0.70;;
76306;SDS011;65117;44.120;3.068;2024-01-27T12:27:20;1.77;;;0.50;;
76306;SDS011;65117;44.120;3.068;2024-01-27T12:29:47;0.50;;;0.50;;
76306;SDS011;65117;44.120;3.068;2024-01-27T12:32:14;1.45;;;0.50;;
76306;SDS011;65117;44.120;3.068;2024-01-27T12:34:41;0.95;;;0.70;;
76306;SDS011;65117;44.120;3.068;2024-01-27T12:37:07;1.08;;;0.82;;
76306;SDS011;65117;44.120;3.068;2024-01-27T12:39:34;0.75;;;0.60;;
76306;SDS011;65117;44.120;3.068;2024-01-27T12:41:59;0.93;;;0.60;;
76306;SDS011;65117;44.120;3.068;2024-01-27T12:44:25;0.68;;;0.68;;
76306;SDS011;65117;44.120;3.068;2024-01-27T12:46:51;0.63;;;0.50;;
76306;SDS011;65117;44.120;3.068;2024-01-27T12:49:16;0.70;;;0.60;;
76306;SDS011;65117;44.120;3.068;2024-01-27T12:51:42;1.75;;;0.75;;
76306;SDS011;65117;44.120;3.068;2024-01-27T12:54:08;0.80;;;0.63;;
76306;SDS011;65117;44.120;3.068;2024-01-27T12:56:34;2.10;;;0.70;;
76306;SDS011;65117;44.120;3.068;2024-01-27T12:59:00;1.15;;;0.70;;
76306;SDS011;65117;44.120;3.068;2024-01-27T13:01:26;1.75;;;0.63;;
76306;SDS011;65117;44.120;3.068;2024-01-27T13:03:52;1.05;;;0.60;;
76306;SDS011;65117;44.120;3.068;2024-01-27T13:06:18;0.93;;;0.70;;
76306;SDS011;65117;44.120;3.068;2024-01-27T13:08:44;0.60;;;0.50;;
76306;SDS011;65117;44.120;3.068;2024-01-27T13:11:10;0.70;;;0.70;;
76306;SDS011;65117;44.120;3.068;2024-01-27T13:13:37;1.02;;;0.65;;
76306;SDS011;65117;44.120;3.068;2024-01-27T13:16:05;0.70;;;0.52;;
76306;SDS011;65117;44.120;3.068;2024-01-27T13:18:30;0.40;;;0.40;;
76306;SDS011;65117;44.120;3.068;2024-01-27T13:20:56;1.75;;;0.70;;
76306;SDS011;65117;44.120;3.068;2024-01-27T13:23:22;1.00;;;0.40;;
76306;SDS011;65117;44.120;3.068;2024-01-27T13:25:48;0.30;;;0.30;;
76306;SDS011;65117;44.120;3.068;2024-01-27T13:28:13;0.40;;;0.40;;
76306;SDS011;65117;44.120;3.068;2024-01-27T13:30:39;0.43;;;0.40;;
76306;SDS011;65117;44.120;3.068;2024-01-27T13:33:05;1.10;;;0.40;;
76306;SDS011;65117;44.120;3.068;2024-01-27T13:35:31;0.38;;;0.38;;
76306;SDS011;65117;44.120;3.068;2024-01-27T13:37:56;0.98;;;0.50;;
76306;SDS011;65117;44.120;3.068;2024-01-27T13:40:22;0.77;;;0.52;;
76306;SDS011;65117;44.120;3.068;2024-01-27T13:42:48;1.50;;;0.35;;
76306;SDS011;65117;44.120;3.068;2024-01-27T13:45:14;0.50;;;0.30;;
76306;SDS011;65117;44.120;3.068;2024-01-27T13:47:40;2.00;;;0.50;;
76306;SDS011;65117;44.120;3.068;2024-01-27T13:50:05;0.47;;;0.47;;
76306;SDS011;65117;44.120;3.068;2024-01-27T13:52:32;1.27;;;0.40;;
76306;SDS011;65117;44.120;3.068;2024-01-27T13:54:57;0.50;;;0.50;;
76306;SDS011;65117;44.120;3.068;2024-01-27T13:57:23;0.85;;;0.77;;
76306;SDS011;65117;44.120;3.068;2024-01-27T13:59:49;1.50;;;0.50;;
76306;SDS011;65117;44.120;3.068;2024-01-27T14:02:15;0.77;;;0.52;;
76306;SDS011;65117;44.120;3.068;2024-01-27T14:04:41;0.85;;;0.50;;
76306;SDS011;65117;44.120;3.068;2024-01-27T14:07:07;1.25;;;0.50;;
76306;SDS011;65117;44.120;3.068;2024-01-27T14:09:35;1.33;;;1.00;;
76306;SDS011;65117;44.120;3.068;2024-01-27T14:12:01;0.90;;;0.73;;
76306;SDS011;65117;44.120;3.068;2024-01-27T14:14:26;0.88;;;0.73;;
76306;SDS011;65117;44.120;3.068;2024-01-27T14:16:52;0.70;;;0.60;;
76306;SDS011;65117;44.120;3.068;2024-01-27T14:19:19;0.70;;;0.70;;
76306;SDS011;65117;44.120;3.068;2024-01-27T14:21:45;1.83;;;0.77;;